Time;durP1;ratioP1;P1;durP2;ratioP2;P2;SDS_P1;SDS_P2;PMS_P1;PMS_P2;Temp;Humidity;BMP_temperature;BMP_pressure;BME280_temperature;BME280_humidity;BME280_pressure;Samples;Min_cycle;Max_cycle;Signal;HPM_P1;HPM_P2
2024/03/07 00:01:33;;;;;;;;;7.75;7.50;;;;;21.52;40.00;102066.91;6399930;22;45336;-77
2024/03/07 00:03:58;;;;;;;;;6.25;6.00;;;;;21.50;40.14;102063.59;6399718;22;46311;-77
2024/03/07 00:06:24;;;;;;;;;6.00;6.00;;;;;21.51;40.42;102063.44;6400499;22;45404;-76
2024/03/07 00:08:49;;;;;;;;;5.75;5.00;;;;;21.51;39.98;102071.41;6400431;22;46259;-76
2024/03/07 00:11:14;;;;;;;;;7.00;5.33;;;;;21.36;39.84;102049.03;6399577;22;57149;-76
2024/03/07 00:13:40;;;;;;;;;8.67;7.00;;;;;21.42;40.14;102060.84;6399375;22;45300;-76
2024/03/07 00:16:05;;;;;;;;;7.50;6.50;;;;;21.49;40.32;102070.69;6371644;22;45584;-77
2024/03/07 00:18:30;;;;;;;;;5.00;5.00;;;;;21.49;39.80;102068.03;6400130;22;45234;-77
2024/03/07 00:20:56;;;;;;;;;7.75;6.50;;;;;21.48;39.73;102063.75;6400196;22;49344;-77
2024/03/07 00:23:21;;;;;;;;;6.00;6.00;;;;;21.30;39.83;102039.84;6400471;22;45252;-76
2024/03/07 00:25:48;;;;;;;;;6.50;6.50;;;;;21.44;40.25;102061.53;6401296;22;45520;-76
2024/03/07 00:28:17;;;;;;;;;5.75;5.75;;;;;21.45;39.75;102058.72;6400392;22;46992;-76
2024/03/07 00:30:45;;;;;;;;;6.00;6.00;;;;;21.43;39.66;102060.69;6400798;22;45406;-76
2024/03/07 00:33:11;;;;;;;;;6.00;6.00;;;;;21.37;39.76;102053.31;6400239;22;45201;-77
2024/03/07 00:35:37;;;;;;;;;8.00;6.75;;;;;21.47;40.25;102072.66;6399749;22;45183;-75
2024/03/07 00:38:02;;;;;;;;;8.50;7.00;;;;;21.42;39.68;102059.03;6371202;22;48320;-76
2024/03/07 00:40:28;;;;;;;;;5.75;5.75;;;;;21.44;39.79;102070.31;6399968;22;45270;-77
2024/03/07 00:42:53;;;;;;;;;7.00;5.75;;;;;;;;6399532;22;45106;-76
2024/03/07 00:45:18;;;;;;;;;6.67;6.67;;;;;21.45;40.10;102079.06;6399809;22;45204;-77
2024/03/07 00:47:44;;;;;;;;;8.50;8.00;;;;;21.45;40.16;102068.47;6399587;22;46857;-77
2024/03/07 00:50:09;;;;;;;;;5.75;5.75;;;;;21.45;40.08;102068.47;6399828;22;45158;-77
2024/03/07 00:52:35;;;;;;;;;5.00;5.00;;;;;;;;6400353;22;45193;-77
2024/03/07 00:55:00;;;;;;;;;5.67;4.67;;;;;21.38;39.66;102061.13;6400372;22;45265;-75
2024/03/07 00:57:25;;;;;;;;;7.00;6.00;;;;;21.17;39.66;102022.50;6399915;22;46624;-76
2024/03/07 00:59:50;;;;;;;;;6.25;6.00;;;;;21.42;39.65;102061.66;6399631;22;45313;-76
2024/03/07 01:02:17;;;;;;;;;5.00;5.00;;;;;21.42;39.65;102059.03;6400313;22;45275;-76
2024/03/07 01:04:42;;;;;;;;;6.00;6.00;;;;;21.29;39.97;102039.00;6399917;22;45285;-76
2024/03/07 01:07:08;;;;;;;;;5.75;5.75;;;;;21.31;39.98;102044.19;6399352;22;46749;-76
2024/03/07 01:09:35;;;;;;;;;7.00;7.00;;;;;21.13;39.94;102015.00;6399685;22;45357;-76
2024/03/07 01:12:04;;;;;;;;;6.00;6.00;;;;;21.31;39.59;102038.03;6399421;22;45371;-76
2024/03/07 01:14:30;;;;;;;;;4.50;4.50;;;;;21.40;39.76;102056.53;6399532;22;45373;-75
2024/03/07 01:16:56;;;;;;;;;9.50;7.25;;;;;21.40;39.50;102053.88;6399475;22;46891;-76
2024/03/07 01:19:21;;;;;;;;;6.50;6.50;;;;;21.39;40.00;102051.41;6399838;22;45362;-75
2024/03/07 01:21:46;;;;;;;;;7.50;6.00;;;;;21.36;39.44;102041.09;6399728;22;45410;-76
2024/03/07 01:24:12;;;;;;;;;8.00;6.00;;;;;21.38;39.73;102045.25;6399559;22;45430;-75
2024/03/07 01:26:37;;;;;;;;;8.00;5.50;;;;;21.39;40.09;102038.16;6400154;22;45313;-76
2024/03/07 01:29:02;;;;;;;;;6.75;6.00;;;;;21.39;39.57;102043.44;6399943;22;45319;-76
2024/03/07 01:31:28;;;;;;;;;4.67;4.67;;;;;21.36;39.76;102031.34;6400184;22;45622;-76
2024/03/07 01:33:54;;;;;;;;;7.00;5.67;;;;;21.30;39.89;102023.97;6399477;22;47232;-75
2024/03/07 01:36:22;;;;;;;;;5.00;4.00;;;;;21.18;40.18;102004.81;6399275;22;46231;-75
2024/03/07 01:38:47;;;;;;;;;5.25;5.25;;;;;21.36;40.11;102031.34;6399408;22;45210;-76
2024/03/07 01:41:14;;;;;;;;;5.75;5.75;;;;;21.33;39.66;102021.03;6399375;22;46034;-76
2024/03/07 01:43:39;;;;;;;;;4.75;3.75;;;;;21.27;39.86;102003.09;6399370;22;45279;-76
2024/03/07 01:46:05;;;;;;;;;5.67;5.67;;;;;21.33;40.08;102012.25;6399392;22;45954;-76
2024/03/07 01:48:31;;;;;;;;;7.75;6.00;;;;;21.31;39.58;102015.06;6399233;22;45172;-76
2024/03/07 01:50:58;;;;;;;;;6.00;5.00;;;;;21.22;39.80;101986.81;6399509;22;45517;-76
2024/03/07 01:53:25;;;;;;;;;4.75;3.75;;;;;21.35;39.85;102011.13;6399047;22;45331;-76
2024/03/07 01:55:53;;;;;;;;;4.50;4.50;;;;;21.35;39.95;102016.44;6399438;22;46321;-76
2024/03/07 01:58:20;;;;;;;;;5.00;5.00;;;;;21.35;39.65;102013.78;6399087;22;45209;-76
2024/03/07 02:00:46;;;;;;;;;5.00;5.00;;;;;21.34;39.63;102003.34;6400764;22;45244;-76
2024/03/07 02:03:13;;;;;;;;;3.67;3.67;;;;;21.29;39.52;101996.66;6400997;22;45308;-76
2024/03/07 02:05:39;;;;;;;;;4.75;3.00;;;;;21.34;39.48;101998.06;6400351;22;46289;-76
2024/03/07 02:08:04;;;;;;;;;6.25;5.50;;;;;21.34;39.50;102006.00;6400418;22;45222;-76
2024/03/07 02:10:30;;;;;;;;;5.00;5.00;;;;;21.33;39.61;102005.16;6400886;22;45312;-76
2024/03/07 02:12:55;;;;;;;;;3.67;2.33;;;;;21.13;39.90;101970.00;6401109;22;45294;-76
2024/03/07 02:15:21;;;;;;;;;6.33;5.67;;;;;21.23;39.36;101980.53;6400401;22;46166;-76
2024/03/07 02:17:46;;;;;;;;;4.75;4.75;;;;;21.27;39.78;101982.75;6400422;22;45218;-76
2024/03/07 02:20:13;;;;;;;;;5.75;5.25;;;;;21.29;39.46;101979.94;6400637;22;45196;-76
2024/03/07 02:22:38;;;;;;;;;4.67;4.67;;;;;21.18;39.51;101963.28;6400636;22;45254;-76
2024/03/07 02:25:04;;;;;;;;;3.67;3.67;;;;;21.11;39.83;101950.78;6400529;22;45252;-76
2024/03/07 02:27:29;;;;;;;;;5.67;5.67;;;;;21.32;39.60;101979.66;6400637;22;45235;-76
2024/03/07 02:29:55;;;;;;;;;6.67;5.67;;;;;21.31;39.67;101978.00;6400854;22;45176;-76
2024/03/07 02:32:20;;;;;;;;;5.00;5.00;;;;;21.32;39.36;101970.88;6400538;22;45427;-76
2024/03/07 02:34:46;;;;;;;;;5.67;4.00;;;;;21.32;39.81;101976.16;6400774;22;46222;-76
2024/03/07 02:37:12;;;;;;;;;5.00;5.00;;;;;21.03;39.33;101922.41;6400286;22;45310;-76
2024/03/07 02:39:38;;;;;;;;;7.00;4.67;;;;;21.03;39.65;101917.94;6400554;22;45264;-76
2024/03/07 02:42:04;;;;;;;;;6.33;6.33;;;;;21.32;39.83;101965.56;6400402;22;45311;-76
2024/03/07 02:44:31;;;;;;;;;5.67;5.67;;;;;21.31;39.33;101962.13;6400029;22;46816;-76
2024/03/07 02:46:58;;;;;;;;;5.33;5.00;;;;;21.32;39.71;101970.88;6400630;22;45212;-76
2024/03/07 02:49:23;;;;;;;;;5.25;3.75;;;;;21.26;39.74;101959.09;6400385;22;45216;-77
2024/03/07 02:51:48;;;;;;;;;8.00;6.00;;;;;21.31;39.73;101958.63;6400368;22;45180;-76
2024/03/07 02:54:14;;;;;;;;;3.67;3.67;;;;;21.31;39.48;101958.63;6399595;22;59975;-77
2024/03/07 02:56:39;;;;;;;;;4.75;4.75;;;;;21.25;39.45;101952.94;6371853;22;45291;-76
2024/03/07 02:59:06;;;;;;;;;5.00;5.00;;;;;21.27;40.01;101958.09;6400443;22;45268;-76
2024/03/07 03:01:31;;;;;;;;;5.67;4.33;;;;;21.31;39.62;101958.63;6400474;22;45472;-76
2024/03/07 03:03:57;;;;;;;;;3.67;3.67;;;;;21.17;39.88;101936.97;6400153;22;45322;-76
2024/03/07 03:06:22;;;;;;;;;6.33;5.00;;;;;21.29;39.37;101959.59;6400360;22;45265;-76
2024/03/07 03:08:48;;;;;;;;;7.33;5.67;;;;;21.16;39.88;101946.72;6400427;22;55438;-76
2024/03/07 03:11:13;;;;;;;;;3.67;3.67;;;;;21.18;39.66;101944.75;6366196;22;45279;-77
2024/03/07 03:13:42;;;;;;;;;4.67;4.67;;;;;21.20;39.65;101947.25;6368141;22;45792;-76
2024/03/07 03:16:08;;;;;;;;;4.75;4.75;;;;;21.28;39.58;101960.59;6368179;22;45227;-77
2024/03/07 03:18:34;;;;;;;;;5.33;5.00;;;;;21.27;39.50;101947.50;6368237;22;45308;-76
2024/03/07 03:21:03;;;;;;;;;4.00;4.00;;;;;21.22;39.62;101945.28;6368170;22;45197;-76
2024/03/07 03:23:28;;;;;;;;;6.25;4.00;;;;;20.93;39.62;101907.38;6368401;22;45995;-76
2024/03/07 03:25:55;;;;;;;;;4.75;4.00;;;;;21.27;39.60;101944.84;6368130;22;45343;-76
2024/03/07 03:28:21;;;;;;;;;5.33;5.00;;;;;21.26;39.16;101944.00;6368287;22;45322;-76
2024/03/07 03:30:47;;;;;;;;;5.67;5.33;;;;;21.27;39.36;101942.19;6368541;22;45370;-75
2024/03/07 03:33:12;;;;;;;;;4.67;4.67;;;;;21.26;39.47;101943.19;6367941;22;46059;-77
2024/03/07 03:35:38;;;;;;;;;4.33;4.33;;;;;21.22;39.94;101945.28;6367851;22;45272;-76
2024/03/07 03:38:03;;;;;;;;;4.00;4.00;;;;;21.26;39.55;101941.38;6368731;22;45213;-76
2024/03/07 03:40:29;;;;;;;;;3.00;3.00;;;;;21.24;39.70;101938.03;6368201;22;45335;-76
2024/03/07 03:42:54;;;;;;;;;7.25;6.75;;;;;21.20;39.15;101927.91;6368321;22;45211;-76
2024/03/07 03:45:20;;;;;;;;;4.00;4.00;;;;;21.26;39.49;101941.38;6368242;22;45271;-76
2024/03/07 03:47:46;;;;;;;;;5.00;4.00;;;;;21.26;39.16;101933.41;6368506;22;45272;-75
2024/03/07 03:50:13;;;;;;;;;3.67;3.67;;;;;21.26;39.49;101936.06;6368209;22;45221;-77
2024/03/07 03:52:41;;;;;;;;;3.67;3.33;;;;;21.22;39.09;101925.94;6368157;22;46130;-76
2024/03/07 03:55:11;;;;;;;;;6.25;5.00;;;;;21.25;39.59;101931.78;6368107;22;45234;-76
2024/03/07 03:57:38;;;;;;;;;4.50;4.50;;;;;21.06;39.39;101893.00;6368056;22;45300;-76
2024/03/07 04:00:13;;;;;;;;;4.00;4.00;;;;;21.16;39.41;101914.13;6367827;22;45401;-77
2024/03/07 04:02:43;;;;;;;;;5.00;3.67;;;;;21.14;39.28;101911.63;6367720;22;46323;-76
2024/03/07 04:05:10;;;;;;;;;4.33;3.33;;;;;21.24;39.13;101921.31;6367708;22;45165;-75
2024/03/07 04:07:39;;;;;;;;;3.33;3.33;;;;;21.24;39.44;101916.03;6368362;22;45342;-76
2024/03/07 04:10:07;;;;;;;;;4.33;4.33;;;;;21.25;39.53;101929.13;6378713;22;45438;-76
2024/03/07 04:12:34;;;;;;;;;4.25;4.25;;;;;21.25;39.37;101923.84;6400235;22;46039;-76
2024/03/07 04:15:00;;;;;;;;;3.00;3.00;;;;;21.26;39.08;101922.03;6400344;22;45196;-75
2024/03/07 04:17:25;;;;;;;;;5.00;5.00;;;;;21.23;39.45;101917.88;6400378;22;45282;-76
2024/03/07 04:19:51;;;;;;;;;4.75;4.75;;;;;21.18;39.02;101917.47;6399528;22;45461;-75
2024/03/07 04:22:18;;;;;;;;;4.00;4.00;;;;;21.20;39.46;101917.31;6399811;22;47166;-76
2024/03/07 04:24:44;;;;;;;;;3.67;3.67;;;;;21.23;39.17;101917.88;6398860;22;45342;-76
2024/03/07 04:27:09;;;;;;;;;3.00;3.00;;;;;21.21;39.02;101911.84;6400466;22;45217;-75
2024/03/07 04:29:35;;;;;;;;;6.50;4.50;;;;;21.16;39.34;101895.59;6399729;22;52243;-76
2024/03/07 04:32:01;;;;;;;;;4.00;3.67;;;;;21.21;39.06;101898.63;6400322;22;45241;-76
2024/03/07 04:34:33;;;;;;;;;2.67;2.67;;;;;21.25;39.59;101907.13;6371032;22;45309;-76
2024/03/07 04:37:03;;;;;;;;;5.00;5.00;;;;;21.18;39.49;101902.41;6400207;22;45320;-76
2024/03/07 04:39:35;;;;;;;;;3.00;3.00;;;;;21.11;39.25;101885.47;6400002;22;45277;-76
2024/03/07 04:42:01;;;;;;;;;4.00;4.00;;;;;21.23;39.01;101904.63;6399807;22;47136;-75
2024/03/07 04:44:30;;;;;;;;;6.50;3.75;;;;;21.23;39.37;101904.63;6400147;22;45232;-75
2024/03/07 04:46:56;;;;;;;;;3.33;3.33;;;;;20.99;39.31;101863.66;6399987;22;45355;-75
2024/03/07 04:49:26;;;;;;;;;4.33;4.33;;;;;21.02;39.08;101857.25;6399352;22;45324;-76
2024/03/07 04:51:52;;;;;;;;;4.00;4.00;;;;;21.05;39.26;101868.34;6400052;22;46188;-75
2024/03/07 04:54:18;;;;;;;;;3.00;3.00;;;;;21.22;39.02;101891.53;6399475;22;45165;-76
2024/03/07 04:56:45;;;;;;;;;6.00;4.67;;;;;21.22;39.03;101891.53;6400388;22;45162;-75
2024/03/07 04:59:11;;;;;;;;;6.00;4.00;;;;;21.21;38.99;101895.97;6399874;22;45443;-75
2024/03/07 05:01:37;;;;;;;;;6.25;4.25;;;;;21.21;39.25;101903.91;6399318;22;46963;-76
2024/03/07 05:04:03;;;;;;;;;3.50;3.50;;;;;21.20;39.19;101898.78;6399387;22;45405;-76
2024/03/07 05:06:28;;;;;;;;;4.00;4.00;;;;;21.17;39.13;101895.47;6399747;22;45346;-75
2024/03/07 05:08:54;;;;;;;;;4.25;3.50;;;;;21.06;39.36;101883.25;6400161;22;45228;-77
2024/03/07 05:11:19;;;;;;;;;6.00;4.50;;;;;21.21;38.81;101905.75;6399155;22;45895;-76
2024/03/07 05:13:45;;;;;;;;;3.50;3.50;;;;;21.16;39.12;101900.88;6399458;22;45326;-75
2024/03/07 05:16:10;;;;;;;;;3.33;2.33;;;;;21.10;38.84;101889.09;6399508;22;45450;-76
2024/03/07 05:18:35;;;;;;;;;3.50;3.00;;;;;21.20;38.97;101904.91;6400081;22;45387;-76
2024/03/07 05:21:30;;;;;;;;;3.75;3.75;;;;;21.20;38.73;101909.38;6400130;22;45283;-76
2024/03/07 05:23:46;;;;;;;;;4.50;4.00;;;;;21.18;38.59;101897.09;6399119;22;45185;-75
2024/03/07 05:26:13;;;;;;;;;3.50;3.25;;;;;21.11;38.81;101882.81;6399348;22;55731;-75
2024/03/07 05:28:39;;;;;;;;;6.33;3.67;;;;;21.05;38.75;101870.19;6399658;22;45431;-75
2024/03/07 05:31:05;;;;;;;;;3.25;3.25;;;;;21.09;38.88;101876.84;6398864;22;46266;-76
2024/03/07 05:33:30;;;;;;;;;3.33;2.67;;;;;21.19;39.08;101890.00;6399509;22;45210;-75
2024/03/07 05:36:13;;;;;;;;;7.50;5.75;;;;;21.20;38.75;101899.63;6400776;22;45157;-75
2024/03/07 05:38:39;;;;;;;;;3.67;3.67;;;;;21.02;39.43;101867.84;6401073;22;45264;-75
2024/03/07 05:41:04;;;;;;;;;3.67;3.67;;;;;21.20;38.78;101902.28;6400828;22;45855;-76
2024/03/07 05:43:30;;;;;;;;;3.50;3.00;;;;;21.18;38.94;101880.41;6401166;22;45192;-75
2024/03/07 05:45:56;;;;;;;;;4.25;4.25;;;;;21.09;39.41;101870.72;6400369;22;45308;-76
2024/03/07 05:48:21;;;;;;;;;4.00;2.67;;;;;21.20;39.01;101888.19;6372312;22;45448;-75
2024/03/07 05:50:47;;;;;;;;;3.00;2.33;;;;;21.20;39.08;101893.50;6400733;22;54600;-77
2024/03/07 05:53:12;;;;;;;;;3.67;3.33;;;;;21.18;39.20;101885.72;6400768;22;45375;-76
2024/03/07 05:55:37;;;;;;;;;4.33;3.33;;;;;21.19;39.47;101887.34;6400628;22;45300;-76
2024/03/07 05:58:03;;;;;;;;;5.00;5.00;;;;;21.17;38.89;101884.03;6400805;22;48517;-77
2024/03/07 06:00:28;;;;;;;;;2.67;1.67;;;;;21.19;38.83;101887.34;6400372;22;45350;-76
2024/03/07 06:02:53;;;;;;;;;3.00;3.00;;;;;21.18;39.28;101881.22;6400932;22;47288;-76
2024/03/07 06:05:19;;;;;;;;;3.67;2.67;;;;;21.18;39.18;101880.41;6400706;22;46544;-76
2024/03/07 06:07:45;;;;;;;;;3.00;3.00;;;;;21.06;38.79;101858.63;6400736;22;45307;-77
2024/03/07 06:10:11;;;;;;;;;2.33;2.33;;;;;21.16;38.87;101879.72;6400666;22;46231;-76
2024/03/07 06:12:37;;;;;;;;;3.00;3.00;;;;;21.18;39.07;101873.28;6400267;22;45277;-76
2024/03/07 06:15:03;;;;;;;;;4.67;4.67;;;;;21.17;38.74;101869.00;6400840;22;45256;-75
2024/03/07 06:17:28;;;;;;;;;3.00;3.00;;;;;21.18;39.20;101867.19;6400655;22;45437;-76
2024/03/07 06:19:54;;;;;;;;;3.67;3.67;;;;;21.05;38.85;101851.69;6400306;22;45843;-76
2024/03/07 06:22:19;;;;;;;;;4.25;4.25;;;;;21.18;38.64;101875.13;6400747;22;47543;-76
2024/03/07 06:24:44;;;;;;;;;3.33;3.33;;;;;21.17;39.06;101878.75;6400892;22;45239;-76
2024/03/07 06:27:26;;;;;;;;;6.00;4.67;;;;;21.17;39.02;101865.50;6400619;22;45145;-76
2024/03/07 06:29:53;;;;;;;;;3.00;3.00;;;;;21.11;39.05;101869.59;6399822;22;46763;-75
2024/03/07 06:32:18;;;;;;;;;5.33;3.67;;;;;21.16;39.12;101877.06;6400125;22;45391;-76
2024/03/07 06:34:43;;;;;;;;;3.33;3.33;;;;;21.16;38.73;101877.06;6400992;22;45211;-76
2024/03/07 06:37:09;;;;;;;;;3.67;3.67;;;;;21.16;38.68;101877.06;6399650;22;58489;-74
2024/03/07 06:39:34;;;;;;;;;4.00;3.33;;;;;21.17;38.99;101876.09;6400522;22;46160;-75
2024/03/07 06:42:00;;;;;;;;;6.00;4.33;;;;;21.16;38.47;101877.91;6401001;22;45216;-75
2024/03/07 06:44:26;;;;;;;;;5.00;4.33;;;;;21.17;38.93;101876.09;6400085;22;45156;-76
2024/03/07 06:46:52;;;;;;;;;4.67;3.33;;;;;21.06;38.73;101859.44;6400123;22;45402;-74
2024/03/07 06:49:17;;;;;;;;;5.33;3.00;;;;;21.18;39.01;101880.41;6371722;22;47196;-75
2024/03/07 06:51:43;;;;;;;;;2.67;0.67;;;;;21.17;38.87;101876.94;6400357;22;45284;-74
2024/03/07 06:54:09;;;;;;;;;4.33;4.33;;;;;21.05;38.78;101854.31;6400565;22;45229;-76
2024/03/07 06:56:34;;;;;;;;;4.00;4.00;;;;;21.18;38.90;101870.66;6400800;22;45413;-75
2024/03/07 06:59:04;;;;;;;;;4.00;3.67;;;;;21.16;39.10;101867.31;6400153;22;45931;-75
2024/03/07 07:01:29;;;;;;;;;3.00;3.00;;;;;21.22;38.62;101870.34;6400980;22;45181;-73
2024/03/07 07:03:57;;;;;;;;;4.00;4.00;;;;;21.25;39.07;101867.41;6399914;22;45261;-73
2024/03/07 07:06:22;;;;;;;;;2.67;2.67;;;;;21.31;39.65;101871.28;6398476;22;45275;-75
2024/03/07 07:08:47;;;;;;;;;4.33;2.67;;;;;21.29;39.79;101866.97;6400719;22;45762;-75
2024/03/07 07:11:13;;;;;;;;;2.67;2.67;;;;;21.39;39.98;101877.47;6399699;22;45387;-74
2024/03/07 07:13:38;;;;;;;;;3.67;3.00;;;;;21.38;40.05;101867.88;6399976;22;45710;-78
2024/03/07 07:16:04;;;;;;;;;3.00;3.00;;;;;21.48;39.62;101873.09;6399992;22;45355;-75
2024/03/07 07:18:30;;;;;;;;;3.00;3.00;;;;;21.52;39.93;101870.97;6399873;22;45386;-75
2024/03/07 07:20:56;;;;;;;;;4.00;2.67;;;;;21.58;40.18;101864.22;6399580;22;45321;-74
2024/03/07 07:23:23;;;;;;;;;6.00;5.00;;;;;21.65;40.04;101865.28;6399854;22;45212;-80
2024/03/07 07:25:48;;;;;;;;;3.00;3.00;;;;;21.69;39.82;101864.00;6400513;22;45287;-75
2024/03/07 07:28:15;;;;;;;;;4.00;4.00;;;;;21.74;39.86;101860.91;6370869;22;59640;-81
2024/03/07 07:30:40;;;;;;;;;4.00;4.00;;;;;21.81;39.35;101850.50;6400633;22;45157;-73
2024/03/07 07:33:05;;;;;;;;;5.00;3.67;;;;;21.84;39.71;101851.03;6399799;22;45328;-79
2024/03/07 07:35:31;;;;;;;;;4.67;4.67;;;;;21.89;39.30;101849.75;6400370;22;45559;-79
2024/03/07 07:37:56;;;;;;;;;4.00;4.00;;;;;21.87;39.15;101841.13;6397382;22;46815;-79
2024/03/07 07:40:24;;;;;;;;;3.00;3.00;;;;;21.98;39.48;101854.16;6388031;22;45810;-79
2024/03/07 07:42:52;;;;;;;;;5.00;4.00;;;;;21.93;39.15;101832.59;6393695;22;45450;-79
2024/03/07 07:45:19;;;;;;;;;4.33;4.33;;;;;22.06;39.14;101848.91;6396190;22;45490;-79
2024/03/07 07:47:52;;;;;;;;;5.00;5.00;;;;;22.09;38.60;101841.63;6396220;22;47239;-79
2024/03/07 07:50:20;;;;;;;;;4.00;3.67;;;;;22.17;38.55;101844.34;6396916;22;45174;-79
2024/03/07 07:52:56;;;;;;;;;4.00;4.00;;;;;22.16;38.79;101838.19;6396773;22;45259;-79
2024/03/07 07:55:24;;;;;;;;;5.00;3.67;;;;;22.26;38.32;101832.78;6396926;22;45519;-79
2024/03/07 07:58:00;;;;;;;;;5.00;5.00;;;;;22.32;38.37;101839.28;6395049;22;47079;-79
2024/03/07 08:00:28;;;;;;;;;5.00;3.33;;;;;22.36;38.89;101840.59;6396594;22;45817;-79
2024/03/07 08:02:56;;;;;;;;;3.00;3.00;;;;;22.42;38.41;101833.00;6396099;22;45666;-79
2024/03/07 08:05:27;;;;;;;;;4.67;3.00;;;;;22.50;38.60;101835.72;6397097;22;45540;-79
2024/03/07 08:07:54;;;;;;;;;4.00;3.00;;;;;22.55;38.70;101830.75;6396311;22;46145;-80
2024/03/07 08:10:20;;;;;;;;;4.00;4.00;;;;;22.57;38.42;101809.38;6395917;22;45312;-79
2024/03/07 08:12:46;;;;;;;;;2.00;2.00;;;;;22.52;37.81;101781.50;6396240;22;45338;-78
2024/03/07 08:15:15;;;;;;;;;4.67;3.67;;;;;22.92;38.08;101822.59;6396151;22;45340;-79
2024/03/07 08:17:45;;;;;;;;;4.00;4.00;;;;;23.18;37.83;101827.81;6395496;22;47094;-79
2024/03/07 08:20:15;;;;;;;;;3.33;2.67;;;;;23.53;37.68;101821.53;6394732;22;45296;-78
2024/03/07 08:22:42;;;;;;;;;2.33;2.33;;;;;23.95;37.04;101817.00;6396550;22;45335;-79
2024/03/07 08:25:14;;;;;;;;;4.00;3.00;;;;;24.40;36.79;101815.72;6396091;22;45228;-79
2024/03/07 08:27:41;;;;;;;;;5.00;3.00;;;;;24.81;35.96;101817.34;6396587;22;45530;-78
2024/03/07 08:30:12;;;;;;;;;4.00;4.00;;;;;25.25;35.45;101814.22;6395657;22;45285;-79
2024/03/07 08:32:39;;;;;;;;;4.00;3.00;;;;;25.69;34.88;101799.34;6395918;22;46014;-79
2024/03/07 08:35:09;;;;;;;;;3.00;3.00;;;;;26.09;34.48;101798.31;6367279;22;45741;-79
2024/03/07 08:37:44;;;;;;;;;4.33;4.33;;;;;26.41;34.18;101784.75;6396370;22;46576;-79
2024/03/07 08:40:11;;;;;;;;;3.33;2.00;;;;;26.91;33.33;101789.38;6395694;22;45367;-79
2024/03/07 08:42:41;;;;;;;;;3.00;3.00;;;;;27.42;33.16;101801.97;6395560;22;45569;-79
2024/03/07 08:45:10;;;;;;;;;3.00;3.00;;;;;27.77;32.58;101785.94;6396084;22;45285;-79
2024/03/07 08:47:36;;;;;;;;;3.00;2.00;;;;;28.08;31.58;101791.88;6395680;22;46258;-79
2024/03/07 08:50:06;;;;;;;;;6.00;3.00;;;;;28.05;31.62;101792.31;6395885;22;45286;-80
2024/03/07 08:52:32;;;;;;;;;3.67;3.67;;;;;27.82;31.91;101782.69;6395993;22;45386;-78
2024/03/07 08:54:57;;;;;;;;;2.00;2.00;;;;;27.59;31.76;101778.44;6396216;22;45769;-79
2024/03/07 08:57:23;;;;;;;;;5.33;4.00;;;;;27.39;31.74;101777.28;6396310;22;45237;-79
2024/03/07 08:59:49;;;;;;;;;4.00;3.00;;;;;27.10;32.06;101778.25;6395963;22;45337;-79
2024/03/07 09:02:15;;;;;;;;;5.00;4.33;;;;;26.68;32.72;101753.03;6395745;22;45379;-79
2024/03/07 09:04:40;;;;;;;;;3.33;3.00;;;;;26.33;32.92;101747.50;6396261;22;45455;-79
2024/03/07 09:07:07;;;;;;;;;3.00;3.00;;;;;26.22;32.91;101773.63;6395515;22;45406;-79
2024/03/07 09:09:33;;;;;;;;;3.00;3.00;;;;;25.92;33.42;101753.16;6395050;22;45358;-80
2024/03/07 09:12:01;;;;;;;;;3.00;2.00;;;;;25.79;34.10;101767.13;6396021;22;45823;-79
2024/03/07 09:14:26;;;;;;;;;3.00;3.00;;;;;25.62;34.21;101764.63;6394198;22;45545;-79
2024/03/07 09:16:52;;;;;;;;;2.33;2.33;;;;;25.45;34.02;101765.81;6394916;22;45322;-79
2024/03/07 09:19:20;;;;;;;;;5.00;3.00;;;;;25.32;34.19;101761.91;6395688;22;45341;-78
2024/03/07 09:21:50;;;;;;;;;3.67;2.67;;;;;25.18;34.39;101752.88;6395841;22;45213;-79
2024/03/07 09:24:16;;;;;;;;;3.33;3.33;;;;;24.97;34.73;101746.34;6394748;22;45225;-78
2024/03/07 09:26:41;;;;;;;;;2.67;2.33;;;;;24.97;34.41;101757.00;6366839;22;47030;-79
2024/03/07 09:29:06;;;;;;;;;3.00;3.00;;;;;24.62;34.58;101709.50;6395867;22;45608;-79
2024/03/07 09:31:32;;;;;;;;;3.00;3.00;;;;;24.76;34.93;101741.69;6396093;22;45299;-78
2024/03/07 09:33:58;;;;;;;;;2.67;2.67;;;;;24.71;34.83;101745.72;6396093;22;45666;-78
2024/03/07 09:36:24;;;;;;;;;3.33;3.33;;;;;24.63;34.92;101738.63;6395651;22;46020;-79
2024/03/07 09:38:49;;;;;;;;;2.00;2.00;;;;;24.56;35.14;101745.66;6395528;22;45163;-77
2024/03/07 09:41:16;;;;;;;;;3.00;3.00;;;;;24.50;34.88;101730.38;6395731;22;45224;-79
2024/03/07 09:43:44;;;;;;;;;3.00;3.00;;;;;24.42;35.09;101733.91;6395837;22;45462;-79
2024/03/07 09:46:10;;;;;;;;;3.00;3.00;;;;;24.28;35.10;101714.19;6394850;22;46298;-80
2024/03/07 09:48:36;;;;;;;;;2.33;2.33;;;;;24.29;35.58;101730.00;6395722;22;45373;-79
2024/03/07 09:51:04;;;;;;;;;2.67;2.33;;;;;24.25;35.59;101728.63;6395831;22;45341;-79
2024/03/07 09:53:30;;;;;;;;;0.00;0.00;;;;;24.12;35.25;101710.63;6395638;22;45382;-79
2024/03/07 09:55:57;;;;;;;;;2.00;2.00;;;;;24.07;35.59;101705.00;6395231;22;46152;-80
2024/03/07 09:58:25;;;;;;;;;4.00;4.00;;;;;24.04;35.46;101706.16;6394771;22;45405;-79
2024/03/07 10:00:53;;;;;;;;;3.00;2.67;;;;;24.09;35.59;101718.09;6395759;22;45322;-79
2024/03/07 10:03:22;;;;;;;;;4.00;2.00;;;;;24.06;35.43;101733.41;6395176;22;45650;-79
2024/03/07 10:05:47;;;;;;;;;2.00;2.00;;;;;24.02;35.55;101708.13;6366088;22;46993;-79
2024/03/07 10:08:13;;;;;;;;;3.00;3.00;;;;;23.91;35.53;101705.88;6394937;22;45811;-80
2024/03/07 10:10:39;;;;;;;;;2.33;2.33;;;;;23.95;35.53;101694.72;6395052;22;45792;-79
2024/03/07 10:13:05;;;;;;;;;1.67;1.67;;;;;23.91;35.80;101698.75;6395046;22;45343;-80
2024/03/07 10:15:32;;;;;;;;;3.67;3.67;;;;;23.90;35.71;101697.06;6396131;22;46060;-79
2024/03/07 10:18:00;;;;;;;;;4.00;2.33;;;;;23.59;35.85;101661.47;6395179;22;45347;-80
2024/03/07 10:20:26;;;;;;;;;4.33;2.00;;;;;23.80;35.41;101697.28;6395961;22;45274;-79
2024/03/07 10:22:52;;;;;;;;;2.00;2.00;;;;;23.79;35.79;101708.06;6396266;22;45483;-79
2024/03/07 10:25:19;;;;;;;;;2.33;2.33;;;;;23.77;35.86;101699.44;6396916;22;45305;-79
2024/03/07 10:27:48;;;;;;;;;1.67;1.67;;;;;23.73;35.66;101689.16;6397042;22;45807;-79
2024/03/07 10:30:20;;;;;;;;;4.00;3.00;;;;;23.71;35.97;101696.47;6396760;22;45658;-79
2024/03/07 10:32:45;;;;;;;;;2.00;2.00;;;;;23.69;36.06;101687.84;6397033;22;45293;-80
2024/03/07 10:35:13;;;;;;;;;2.00;1.67;;;;;23.60;36.07;101670.28;6395674;22;45769;-80
2024/03/07 10:37:38;;;;;;;;;4.00;4.00;;;;;23.66;35.69;101679.38;6397351;22;45268;-79
2024/03/07 10:40:10;;;;;;;;;2.67;2.67;;;;;23.63;36.23;101673.41;6397047;22;45353;-79
2024/03/07 10:42:46;;;;;;;;;3.00;3.00;;;;;23.49;36.15;101661.69;6397050;22;45400;-79
2024/03/07 10:45:16;;;;;;;;;2.00;2.00;;;;;23.58;35.89;101666.94;6396393;22;46128;-79
2024/03/07 10:47:43;;;;;;;;;2.00;2.00;;;;;23.26;36.05;101624.38;6369881;22;45289;-79
2024/03/07 10:50:29;;;;;;;;;2.00;2.00;;;;;23.51;36.13;101657.03;6396570;22;45328;-79
2024/03/07 10:53:02;;;;;;;;;3.00;3.00;;;;;23.48;36.49;101657.31;6397212;22;45753;-79
2024/03/07 10:55:38;;;;;;;;;3.67;3.33;;;;;23.46;36.10;101654.03;6396140;22;45322;-80
2024/03/07 10:58:27;;;;;;;;;3.00;3.00;;;;;23.44;36.00;101639.25;6396587;22;45989;-79
2024/03/07 11:00:58;;;;;;;;;2.00;2.00;;;;;23.42;36.10;101639.41;6267586;22;46349;-79
2024/03/07 11:03:24;;;;;;;;;2.00;2.00;;;;;23.31;36.14;101623.84;6267431;22;45359;-80
2024/03/07 11:05:50;;;;;;;;;2.00;2.00;;;;;23.34;36.14;101642.91;6267444;22;46080;-80
2024/03/07 11:08:16;;;;;;;;;2.00;2.00;;;;;23.33;36.36;101633.31;6267364;22;45518;-79
2024/03/07 11:10:43;;;;;;;;;4.33;1.33;;;;;23.29;35.93;101618.69;6267612;22;45247;-80
2024/03/07 11:13:12;;;;;;;;;3.33;2.00;;;;;23.19;36.30;101608.28;6266659;22;45338;-80
2024/03/07 11:15:40;;;;;;;;;2.67;2.67;;;;;23.26;35.94;101642.94;6266603;22;46197;-79
2024/03/07 11:18:08;;;;;;;;;2.67;2.67;;;;;23.18;36.21;101611.94;6267619;22;45834;-79
2024/03/07 11:20:37;;;;;;;;;2.67;1.00;;;;;23.21;36.04;101613.44;6266817;22;45239;-79
2024/03/07 11:23:26;;;;;;;;;4.00;2.00;;;;;23.18;36.13;101609.28;6266684;22;45420;-80
2024/03/07 11:25:53;;;;;;;;;2.00;2.00;;;;;23.17;36.40;101607.63;6267614;22;46604;-79